Armstrong, Florida
Current Conditions -  °F | °C
As of 3:58 PM on Friday 19 Dec 2014 (Local Time) from KSGJ Reporting Station
Clear Clear  
Wind Chill: 19°   Ceiling: Unl
Heat Index: 19°   Visibility: 10mi
Dew Point: 11°   Wind: 7mph
Humidity: 59%   Direction: 30°NNE
Pressure: 30.1"   Gusts: NA
Location:  29.7919°N, 81.4499°W
Report Text: KSGJ 192058Z 03006KT 10SM CLR 19/11 A3010 RMK AO2 SLP192 T01890106 55007
Loading
Personal Weather Stations






























Interactive Weather Map New forecast layout! Learn more

10-Day Weather Forecast

Advertisements
Track Severe Weather on mobile